createdAt,value
2023-03-06T00:00:47.251Z,4.85
2023-03-06T00:01:51.786Z,5.78
2023-03-06T00:03:13.361Z,5.68
2023-03-06T00:04:35.974Z,5.13
2023-03-06T00:05:59.393Z,5.97
2023-03-06T00:07:23.318Z,5.60
2023-03-06T00:08:44.867Z,5.80
2023-03-06T00:10:07.868Z,6.90
2023-03-06T00:11:30.446Z,7.05
2023-03-06T00:12:52.813Z,7.43
2023-03-06T00:14:15.905Z,7.05
2023-03-06T00:15:26.732Z,7.35
2023-03-06T00:16:29.375Z,8.80
2023-03-06T00:17:30.886Z,8.05
2023-03-06T00:18:33.766Z,8.27
2023-03-06T00:19:35.606Z,8.75
2023-03-06T00:20:40.613Z,9.55
2023-03-06T00:21:42.294Z,9.68
2023-03-06T00:22:46.314Z,9.23
2023-03-06T00:23:47.974Z,10.50
2023-03-06T00:24:50.483Z,9.50
2023-03-06T00:25:52.105Z,10.27
2023-03-06T00:26:54.625Z,9.05
2023-03-06T00:27:56.199Z,10.88
2023-03-06T00:28:58.884Z,10.52
2023-03-06T00:30:01.369Z,9.00
2023-03-06T00:31:05.080Z,9.82
2023-03-06T00:32:07.741Z,9.35
2023-03-06T00:33:10.330Z,10.00
2023-03-06T00:34:12.271Z,10.35
2023-03-06T00:35:15.553Z,9.98
2023-03-06T00:36:17.480Z,9.00
2023-03-06T00:37:20.848Z,10.43
2023-03-06T00:38:25.238Z,8.82
2023-03-06T00:39:27.752Z,9.23
2023-03-06T00:40:29.253Z,10.07
2023-03-06T00:41:31.765Z,9.63
2023-03-06T00:42:33.319Z,9.77
2023-03-06T00:43:35.878Z,9.77
2023-03-06T00:44:37.388Z,8.20
2023-03-06T00:45:40.411Z,9.98
2023-03-06T00:46:42.183Z,10.25
2023-03-06T00:47:44.864Z,9.70
2023-03-06T00:48:46.479Z,9.40
2023-03-06T00:49:48.959Z,8.82
2023-03-06T00:50:50.485Z,8.65
2023-03-06T00:51:52.983Z,8.88
2023-03-06T00:52:54.563Z,9.82
2023-03-06T00:53:58.394Z,10.10
2023-03-06T00:55:00.185Z,10.02
2023-03-06T00:56:02.670Z,9.40
2023-03-06T00:57:05.082Z,10.20
2023-03-06T00:58:07.575Z,10.07
2023-03-06T00:59:09.121Z,9.25
2023-03-06T01:00:14.053Z,9.50
2023-03-06T01:01:16.936Z,10.93
2023-03-06T01:02:20.536Z,10.25
2023-03-06T01:03:22.115Z,11.73
2023-03-06T01:04:24.946Z,10.45
2023-03-06T01:05:26.550Z,10.45
2023-03-06T01:06:29.503Z,11.80
2023-03-06T01:07:33.921Z,10.15
2023-03-06T01:08:36.581Z,10.68
2023-03-06T01:09:39.476Z,11.82
2023-03-06T01:10:42.063Z,11.30
2023-03-06T01:11:43.620Z,10.70
2023-03-06T01:12:46.661Z,11.18
2023-03-06T01:13:48.358Z,10.18
2023-03-06T01:14:50.897Z,11.68
2023-03-06T01:15:52.792Z,11.35
2023-03-06T01:16:55.294Z,11.25
2023-03-06T01:17:56.948Z,12.60
2023-03-06T01:18:59.901Z,11.77
2023-03-06T01:20:01.550Z,12.25
2023-03-06T01:21:04.822Z,11.27
2023-03-06T01:22:06.624Z,12.30
2023-03-06T01:23:09.192Z,13.48
2023-03-06T01:24:10.817Z,12.55
2023-03-06T01:25:14.692Z,11.50
2023-03-06T01:26:16.324Z,12.55
2023-03-06T01:27:18.946Z,13.57
2023-03-06T01:28:20.503Z,11.52
2023-03-06T01:29:23.021Z,12.50
2023-03-06T01:30:24.566Z,11.38
2023-03-06T01:31:27.403Z,12.10
2023-03-06T01:32:30.608Z,11.45
2023-03-06T01:33:33.626Z,12.75
2023-03-06T01:34:35.204Z,12.80
2023-03-06T01:35:39.034Z,11.50
2023-03-06T01:36:40.880Z,11.85
2023-03-06T01:37:43.476Z,13.50
2023-03-06T01:38:45.080Z,13.32
2023-03-06T01:39:47.596Z,12.32
2023-03-06T01:40:51.592Z,12.90
2023-03-06T01:41:53.321Z,12.00
2023-03-06T01:42:55.856Z,12.18
2023-03-06T01:43:57.361Z,14.68
2023-03-06T01:45:01.884Z,14.65
2023-03-06T01:46:38.681Z,13.52
2023-03-06T01:47:40.374Z,13.18
2023-03-06T01:48:44.329Z,12.88
2023-03-06T01:49:45.951Z,12.57
2023-03-06T01:50:49.109Z,14.07
2023-03-06T01:51:55.246Z,12.90
2023-03-06T01:52:59.453Z,14.15
2023-03-06T01:54:07.515Z,12.70
2023-03-06T01:55:13.372Z,13.70
2023-03-06T01:56:17.596Z,13.65
2023-03-06T01:57:22.376Z,13.15
2023-03-06T01:58:24.947Z,12.60
2023-03-06T01:59:28.533Z,13.77
2023-03-06T02:00:31.440Z,12.80
2023-03-06T02:01:33.639Z,13.43
2023-03-06T02:02:37.086Z,10.95
2023-03-06T02:03:40.092Z,14.10
2023-03-06T02:04:44.092Z,13.93
2023-03-06T02:05:46.220Z,12.40
2023-03-06T02:06:49.179Z,15.18
2023-03-06T02:07:51.870Z,13.48
2023-03-06T02:08:55.320Z,12.27
2023-03-06T02:09:57.071Z,13.32
2023-03-06T02:11:10.339Z,13.85
2023-03-06T02:12:16.305Z,13.70
2023-03-06T02:13:18.800Z,13.65
2023-03-06T02:14:21.449Z,12.13
2023-03-06T02:15:25.660Z,13.65
2023-03-06T02:16:30.867Z,14.07
2023-03-06T02:17:35.388Z,14.43
2023-03-06T02:18:39.118Z,13.90
2023-03-06T02:19:50.052Z,13.30
2023-03-06T02:20:54.971Z,14.40
2023-03-06T02:21:56.741Z,13.23
2023-03-06T02:23:05.799Z,13.00
2023-03-06T02:24:20.052Z,12.80
2023-03-06T02:25:34.157Z,13.85
2023-03-06T02:26:37.683Z,13.95
2023-03-06T02:27:40.553Z,13.90
2023-03-06T02:28:42.702Z,14.23
2023-03-06T02:29:45.316Z,13.52
2023-03-06T02:30:48.968Z,13.88
2023-03-06T02:31:51.800Z,13.18
2023-03-06T02:32:53.621Z,14.65
2023-03-06T02:34:09.021Z,14.43
2023-03-06T02:35:18.466Z,14.45
2023-03-06T02:36:21.072Z,14.40
2023-03-06T02:37:23.707Z,14.43
2023-03-06T02:38:30.348Z,14.52
2023-03-06T02:39:34.315Z,14.50
2023-03-06T02:40:38.572Z,14.68
2023-03-06T02:41:41.396Z,13.88
2023-03-06T02:42:47.279Z,15.10
2023-03-06T02:43:50.406Z,15.13
2023-03-06T02:44:55.156Z,14.95
2023-03-06T02:45:56.789Z,15.82
2023-03-06T02:46:59.432Z,14.23
2023-03-06T02:48:01.042Z,15.80
2023-03-06T02:49:03.644Z,14.25
2023-03-06T02:50:05.530Z,15.32
2023-03-06T02:51:08.017Z,15.93
2023-03-06T02:52:09.627Z,14.73
2023-03-06T02:53:13.350Z,13.65
2023-03-06T02:54:18.179Z,13.45
2023-03-06T02:55:20.658Z,15.10
2023-03-06T02:56:23.491Z,15.27
2023-03-06T02:57:25.996Z,14.32
2023-03-06T02:58:27.787Z,13.63
2023-03-06T02:59:30.333Z,14.88
2023-03-06T03:00:32.610Z,16.27
2023-03-06T03:01:35.158Z,15.18
2023-03-06T03:02:37.071Z,14.65
2023-03-06T03:03:39.630Z,15.57
2023-03-06T03:04:41.352Z,17.23
2023-03-06T03:05:43.867Z,16.13
2023-03-06T03:06:45.378Z,15.10
2023-03-06T03:07:48.152Z,16.65
2023-03-06T03:08:49.674Z,15.85
2023-03-06T03:09:52.287Z,15.45
2023-03-06T03:10:55.665Z,14.35
2023-03-06T03:11:59.527Z,15.32
2023-03-06T03:13:01.111Z,14.38
2023-03-06T03:14:03.603Z,14.65
2023-03-06T03:15:06.731Z,14.88
2023-03-06T03:16:13.859Z,15.65
2023-03-06T03:17:16.030Z,16.85
2023-03-06T03:18:22.797Z,15.30
2023-03-06T03:19:24.363Z,15.40
2023-03-06T03:20:27.036Z,15.70
2023-03-06T03:21:28.664Z,14.80
2023-03-06T03:22:31.691Z,14.80
2023-03-06T03:23:33.343Z,15.15
2023-03-06T03:24:35.986Z,14.57
2023-03-06T03:25:37.552Z,14.43
2023-03-06T03:26:40.148Z,14.23
2023-03-06T03:27:43.523Z,13.98
2023-03-06T03:28:46.173Z,13.48
2023-03-06T03:29:47.789Z,15.52
2023-03-06T03:30:50.288Z,12.73
2023-03-06T03:31:51.887Z,14.98
2023-03-06T03:32:54.621Z,13.40
2023-03-06T03:33:56.221Z,13.90
2023-03-06T03:34:58.801Z,14.40
2023-03-06T03:36:02.613Z,13.52
2023-03-06T03:37:05.497Z,14.15
2023-03-06T03:38:07.069Z,12.80
2023-03-06T03:39:10.123Z,15.15
2023-03-06T03:40:12.729Z,13.43
2023-03-06T03:41:15.248Z,13.82
2023-03-06T03:42:16.796Z,12.93
2023-03-06T03:43:21.302Z,14.20
2023-03-06T03:44:22.939Z,12.45
2023-03-06T03:45:25.667Z,13.32
2023-03-06T03:46:27.479Z,12.75
2023-03-06T03:47:30.482Z,13.63
2023-03-06T03:48:32.100Z,13.25
2023-03-06T03:49:34.620Z,14.77
2023-03-06T03:50:36.160Z,13.10
2023-03-06T03:51:41.873Z,14.88
2023-03-06T03:52:43.444Z,13.75
2023-03-06T03:53:46.546Z,14.45
2023-03-06T03:54:48.195Z,14.25
2023-03-06T03:55:51.478Z,13.38
2023-03-06T03:56:53.013Z,13.85
2023-03-06T03:57:55.506Z,14.65
2023-03-06T03:58:59.201Z,13.48
2023-03-06T04:00:01.760Z,14.50
2023-03-06T04:01:05.306Z,13.27
2023-03-06T04:02:07.849Z,13.35
2023-03-06T04:03:09.548Z,14.52
2023-03-06T04:04:12.138Z,16.10
2023-03-06T04:05:14.979Z,13.88
2023-03-06T04:06:18.708Z,13.18
2023-03-06T04:07:20.225Z,14.05
2023-03-06T04:08:24.276Z,14.77
2023-03-06T04:09:25.829Z,15.45
2023-03-06T04:10:28.781Z,14.07
2023-03-06T04:11:30.343Z,14.88
2023-03-06T04:12:33.306Z,15.02
2023-03-06T04:13:34.872Z,13.93
2023-03-06T04:14:38.747Z,16.23
2023-03-06T04:15:40.258Z,13.98
2023-03-06T04:16:43.103Z,14.90
2023-03-06T04:17:44.618Z,14.30
2023-03-06T04:18:47.205Z,15.68
2023-03-06T04:19:48.891Z,13.80
2023-03-06T04:20:51.499Z,16.63
2023-03-06T04:21:53.048Z,14.38
2023-03-06T04:22:55.564Z,15.55
2023-03-06T04:23:58.394Z,14.35
2023-03-06T04:25:00.898Z,16.40
2023-03-06T04:26:02.724Z,15.00
2023-03-06T04:27:05.650Z,16.33
2023-03-06T04:28:07.819Z,17.08
2023-03-06T04:29:13.507Z,15.70
2023-03-06T04:30:16.598Z,15.45
2023-03-06T04:31:19.192Z,18.00
2023-03-06T04:32:21.638Z,15.73
2023-03-06T04:33:24.560Z,17.40
2023-03-06T04:34:26.175Z,15.65
2023-03-06T04:35:28.915Z,16.20
2023-03-06T04:36:33.054Z,17.60
2023-03-06T04:37:34.665Z,17.55
2023-03-06T04:38:37.202Z,16.85
2023-03-06T04:39:38.774Z,16.92
2023-03-06T04:40:42.931Z,17.40
2023-03-06T04:41:46.224Z,16.95
2023-03-06T04:42:49.171Z,18.38
2023-03-06T04:43:51.412Z,17.67
2023-03-06T04:44:53.938Z,16.95
2023-03-06T04:45:58.053Z,19.35
2023-03-06T04:47:01.265Z,18.30
2023-03-06T04:48:03.102Z,19.38
2023-03-06T04:49:05.678Z,19.40
2023-03-06T04:50:08.858Z,18.17
2023-03-06T04:51:12.257Z,17.13
2023-03-06T04:52:13.830Z,18.55
2023-03-06T04:53:16.905Z,19.95
2023-03-06T04:54:19.119Z,20.35
2023-03-06T04:55:21.940Z,19.17
2023-03-06T04:56:23.653Z,20.00
2023-03-06T04:57:26.148Z,19.48
2023-03-06T04:58:27.736Z,17.88
2023-03-06T04:59:30.247Z,18.75
2023-03-06T05:00:31.864Z,20.20
2023-03-06T05:01:36.074Z,19.15
2023-03-06T05:02:37.663Z,19.10
2023-03-06T05:03:40.182Z,18.70
2023-03-06T05:04:41.813Z,20.00
2023-03-06T05:05:44.390Z,19.50
2023-03-06T05:06:46.383Z,19.15
2023-03-06T05:07:48.913Z,19.65
2023-03-06T05:08:50.432Z,19.95
2023-03-06T05:09:53.318Z,20.52
2023-03-06T05:10:56.905Z,19.00
2023-03-06T05:11:59.436Z,18.27
2023-03-06T05:13:01.049Z,18.90
2023-03-06T05:14:13.219Z,18.20
2023-03-06T05:15:16.386Z,18.85
2023-03-06T05:16:18.929Z,19.63
2023-03-06T05:17:21.962Z,18.48
2023-03-06T05:18:24.440Z,20.40
2023-03-06T05:19:26.249Z,17.40
2023-03-06T05:20:29.076Z,19.58
2023-03-06T05:21:30.649Z,18.85
2023-03-06T05:22:33.327Z,18.38
2023-03-06T05:23:38.296Z,19.92
2023-03-06T05:24:41.605Z,19.13
2023-03-06T05:25:43.280Z,19.42
2023-03-06T05:26:45.934Z,21.15
2023-03-06T05:27:47.490Z,18.38
2023-03-06T05:28:50.035Z,21.20
2023-03-06T05:29:51.599Z,19.08
2023-03-06T05:30:54.076Z,20.52
2023-03-06T05:31:55.928Z,20.05
2023-03-06T05:33:00.393Z,21.17
2023-03-06T05:34:01.992Z,17.50
2023-03-06T05:35:06.275Z,18.85
2023-03-06T05:36:08.941Z,20.83
2023-03-06T05:37:11.473Z,18.00
2023-03-06T05:38:13.711Z,20.23
2023-03-06T05:39:16.284Z,19.58
2023-03-06T05:40:18.678Z,19.65
2023-03-06T05:41:21.678Z,19.30
2023-03-06T05:42:23.504Z,20.55
2023-03-06T05:43:26.421Z,21.65
2023-03-06T05:44:30.871Z,20.15
2023-03-06T05:45:33.505Z,19.38
2023-03-06T05:46:35.406Z,20.23
2023-03-06T05:47:38.434Z,20.40
2023-03-06T05:48:41.330Z,19.75
2023-03-06T05:49:43.933Z,19.90
2023-03-06T05:50:45.484Z,20.98
2023-03-06T05:51:48.021Z,21.38
2023-03-06T05:52:50.996Z,21.58
2023-03-06T05:53:52.779Z,19.60
2023-03-06T05:54:56.029Z,20.55
2023-03-06T05:55:58.477Z,18.65
2023-03-06T05:57:01.153Z,19.63
2023-03-06T05:58:02.726Z,20.67
2023-03-06T05:59:05.267Z,19.10
2023-03-06T06:00:09.161Z,20.08
2023-03-06T06:01:20.742Z,19.95
2023-03-06T06:02:22.630Z,21.05
2023-03-06T06:03:25.768Z,18.27
2023-03-06T06:04:28.748Z,21.77
2023-03-06T06:05:31.256Z,19.77
2023-03-06T06:06:32.771Z,19.50
2023-03-06T06:07:35.355Z,17.73
2023-03-06T06:08:37.340Z,21.58
2023-03-06T06:09:39.964Z,18.75
2023-03-06T06:10:41.717Z,20.77
2023-03-06T06:11:44.596Z,19.95
2023-03-06T06:12:46.123Z,18.33
2023-03-06T06:13:49.961Z,20.17
2023-03-06T06:14:52.464Z,17.80
2023-03-06T06:15:54.272Z,20.10
2023-03-06T06:16:57.331Z,16.65
2023-03-06T06:17:59.004Z,17.65
2023-03-06T06:19:01.544Z,17.00
2023-03-06T06:20:06.477Z,18.42
2023-03-06T06:21:11.425Z,19.63
2023-03-06T06:22:14.158Z,18.42
2023-03-06T06:23:15.781Z,17.85
2023-03-06T06:24:20.304Z,19.63
2023-03-06T06:25:21.851Z,18.65
2023-03-06T06:26:24.389Z,16.83
2023-03-06T06:27:25.978Z,17.40
2023-03-06T06:28:28.652Z,15.20
2023-03-06T06:29:30.360Z,14.90
2023-03-06T06:30:42.904Z,16.48
2023-03-06T06:31:44.824Z,15.95
2023-03-06T06:32:47.369Z,16.92
2023-03-06T06:33:48.902Z,17.25
2023-03-06T06:34:51.559Z,16.25
2023-03-06T06:35:54.784Z,17.20
2023-03-06T06:36:57.356Z,17.02
2023-03-06T06:38:00.010Z,16.27
2023-03-06T06:39:01.885Z,16.35
2023-03-06T06:40:05.419Z,18.30
2023-03-06T06:41:35.576Z,17.80
2023-03-06T06:42:36.966Z,16.75
2023-03-06T06:43:40.766Z,17.50
2023-03-06T06:44:43.418Z,17.17
2023-03-06T06:45:44.976Z,15.95
2023-03-06T06:48:12.748Z,18.42
2023-03-06T06:49:14.775Z,16.52
2023-03-06T06:50:17.626Z,18.55
2023-03-06T06:51:20.813Z,17.90
2023-03-06T06:52:24.384Z,18.48
2023-03-06T06:53:27.431Z,17.80
2023-03-06T06:54:31.056Z,17.77
2023-03-06T06:55:33.586Z,18.30
2023-03-06T06:56:35.447Z,16.23
2023-03-06T06:57:38.103Z,18.15
2023-03-06T06:58:39.766Z,18.77
2023-03-06T06:59:42.562Z,18.27
2023-03-06T07:00:44.237Z,18.50
2023-03-06T07:01:47.043Z,19.58
2023-03-06T07:02:51.084Z,19.27
2023-03-06T07:03:52.665Z,18.00
2023-03-06T07:05:04.802Z,17.23
2023-03-06T07:06:16.037Z,17.60
2023-03-06T07:07:19.903Z,18.00
2023-03-06T07:08:21.644Z,18.05
2023-03-06T07:09:24.286Z,16.70
2023-03-06T07:10:26.977Z,18.05
2023-03-06T07:11:28.544Z,17.85
2023-03-06T07:12:32.721Z,17.90
2023-03-06T07:13:34.399Z,18.30
2023-03-06T07:14:37.241Z,18.52
2023-03-06T07:15:38.972Z,16.45
2023-03-06T07:16:41.466Z,17.30
2023-03-06T07:17:43.149Z,17.65
2023-03-06T07:18:46.221Z,16.17
2023-03-06T07:19:49.085Z,17.73
2023-03-06T07:20:51.637Z,18.50
2023-03-06T07:21:54.160Z,17.45
2023-03-06T07:22:58.029Z,18.75
2023-03-06T07:24:00.542Z,17.30
2023-03-06T07:25:03.261Z,16.40
2023-03-06T07:26:06.196Z,17.27
2023-03-06T07:27:08.077Z,15.90
2023-03-06T07:28:10.713Z,16.55
2023-03-06T07:29:12.300Z,16.02
2023-03-06T07:30:15.157Z,16.10
2023-03-06T07:31:17.724Z,16.05
2023-03-06T07:32:20.655Z,16.58
2023-03-06T07:33:23.235Z,16.33
2023-03-06T07:34:25.857Z,14.98
2023-03-06T07:35:27.637Z,15.52
2023-03-06T07:36:30.225Z,14.85
2023-03-06T07:37:32.925Z,14.82
2023-03-06T07:38:36.281Z,15.00
2023-03-06T07:39:38.826Z,14.30
2023-03-06T07:40:42.138Z,15.63
2023-03-06T07:41:43.741Z,14.10
2023-03-06T07:42:46.838Z,15.30
2023-03-06T07:43:49.233Z,15.65
2023-03-06T07:44:51.753Z,15.02
2023-03-06T07:45:58.117Z,14.88
2023-03-06T07:46:59.665Z,15.73
2023-03-06T07:48:02.203Z,14.65
2023-03-06T07:49:03.784Z,15.80
2023-03-06T07:50:07.790Z,15.35
2023-03-06T07:51:14.761Z,16.33
2023-03-06T07:52:17.287Z,16.05
2023-03-06T07:53:22.431Z,18.52
2023-03-06T07:54:26.305Z,15.75
2023-03-06T07:55:28.020Z,16.63
2023-03-06T07:56:30.507Z,16.60
2023-03-06T07:57:32.120Z,17.40
2023-03-06T07:58:34.616Z,16.25
2023-03-06T07:59:37.211Z,16.95
2023-03-06T08:00:38.788Z,17.70
2023-03-06T08:01:41.269Z,16.75
2023-03-06T08:02:43.335Z,16.75
2023-03-06T08:03:46.390Z,16.10
2023-03-06T08:04:52.199Z,18.48
2023-03-06T08:05:54.696Z,18.83
2023-03-06T08:06:57.484Z,18.85
2023-03-06T08:08:01.085Z,15.80
2023-03-06T08:09:03.163Z,17.10
2023-03-06T08:10:07.905Z,16.85
2023-03-06T08:11:11.272Z,18.27
2023-03-06T08:12:15.752Z,19.00
2023-03-06T08:13:19.085Z,18.45
2023-03-06T08:14:21.674Z,18.58
2023-03-06T08:15:23.432Z,18.00
2023-03-06T08:16:28.496Z,18.80
2023-03-06T08:17:30.127Z,18.63
2023-03-06T08:18:33.072Z,21.33
2023-03-06T08:19:34.664Z,19.80
2023-03-06T08:20:37.231Z,21.42
2023-03-06T08:21:39.908Z,20.52
2023-03-06T08:22:41.918Z,21.67
2023-03-06T08:23:44.938Z,21.75
2023-03-06T08:24:47.529Z,23.17
2023-03-06T08:25:56.939Z,23.17
2023-03-06T08:26:59.559Z,21.48
2023-03-06T08:28:02.154Z,23.08
2023-03-06T08:29:04.793Z,21.35
2023-03-06T08:30:07.958Z,23.35
2023-03-06T08:31:13.246Z,22.95
2023-03-06T08:32:15.929Z,22.63
2023-03-06T08:33:18.490Z,24.60
2023-03-06T08:34:24.156Z,23.90
2023-03-06T08:35:26.746Z,23.25
2023-03-06T08:36:29.158Z,24.65
2023-03-06T08:37:31.754Z,24.30
2023-03-06T08:38:35.301Z,26.60
2023-03-06T08:39:37.845Z,22.70
2023-03-06T08:40:39.581Z,25.55
2023-03-06T08:41:43.547Z,23.70
2023-03-06T08:42:48.834Z,23.00
2023-03-06T08:43:50.920Z,23.88
2023-03-06T08:44:53.441Z,21.90
2023-03-06T08:45:55.746Z,24.67
2023-03-06T08:46:58.452Z,22.90
2023-03-06T08:48:00.025Z,19.77
2023-03-06T08:49:03.022Z,22.65
2023-03-06T08:50:06.115Z,22.00
2023-03-06T08:51:09.540Z,21.25
2023-03-06T08:52:12.443Z,22.27
2023-03-06T08:53:15.166Z,21.95
2023-03-06T08:54:17.712Z,23.15
2023-03-06T08:55:20.223Z,20.13
2023-03-06T08:56:24.571Z,21.95
2023-03-06T08:57:28.424Z,19.67
2023-03-06T08:58:31.840Z,19.58
2023-03-06T08:59:33.385Z,18.67
2023-03-06T09:00:36.151Z,21.55
2023-03-06T09:01:39.828Z,21.90
2023-03-06T09:02:42.663Z,21.52
2023-03-06T09:03:44.570Z,22.08
2023-03-06T09:04:47.057Z,19.75
2023-03-06T09:05:49.086Z,21.67
2023-03-06T09:06:52.143Z,21.02
2023-03-06T09:07:54.606Z,20.58
2023-03-06T09:08:57.355Z,19.05
2023-03-06T09:09:59.891Z,20.55
2023-03-06T09:11:01.498Z,22.20
2023-03-06T09:12:04.388Z,21.10
2023-03-06T09:13:07.439Z,18.83
2023-03-06T09:14:10.003Z,20.35
2023-03-06T09:15:14.279Z,20.05
2023-03-06T09:16:15.861Z,20.83
2023-03-06T09:17:18.461Z,18.88
2023-03-06T09:18:20.031Z,19.58
2023-03-06T09:19:22.552Z,20.17
2023-03-06T09:20:24.201Z,20.88
2023-03-06T09:21:28.091Z,21.38
2023-03-06T09:22:29.650Z,19.90
2023-03-06T09:23:32.468Z,17.90
2023-03-06T09:24:35.048Z,18.50
2023-03-06T09:25:36.852Z,20.15
2023-03-06T09:26:46.050Z,20.75
2023-03-06T09:28:01.800Z,20.50
2023-03-06T09:29:09.596Z,20.95
2023-03-06T09:30:12.232Z,18.25
2023-03-06T09:31:16.838Z,20.20
2023-03-06T09:32:19.446Z,21.00
2023-03-06T09:33:22.132Z,19.90
2023-03-06T09:34:24.883Z,20.40
2023-03-06T09:35:26.475Z,18.10
2023-03-06T09:36:29.086Z,19.83
2023-03-06T09:37:31.575Z,20.05
2023-03-06T09:38:33.454Z,20.38
2023-03-06T09:39:36.095Z,19.98
2023-03-06T09:40:49.854Z,20.55
2023-03-06T09:41:53.068Z,20.98
2023-03-06T09:42:54.702Z,18.10
2023-03-06T09:44:04.894Z,20.45
2023-03-06T09:45:14.246Z,21.50
2023-03-06T09:46:23.264Z,18.30
2023-03-06T09:47:46.536Z,18.50
2023-03-06T09:49:01.363Z,16.98
2023-03-06T09:50:14.859Z,18.65
2023-03-06T09:51:22.046Z,18.30
2023-03-06T09:52:31.472Z,17.27
2023-03-06T09:53:50.560Z,17.02
2023-03-06T09:54:55.472Z,17.08
2023-03-06T09:56:00.956Z,20.08
2023-03-06T09:57:03.794Z,17.85
2023-03-06T09:58:15.170Z,18.13
2023-03-06T09:59:24.348Z,14.93
2023-03-06T10:00:33.058Z,15.45
2023-03-06T10:01:40.893Z,16.13
2023-03-06T10:02:47.249Z,14.55
2023-03-06T10:03:55.216Z,13.25
2023-03-06T10:05:01.612Z,13.73
2023-03-06T10:06:14.388Z,14.18
2023-03-06T10:07:21.723Z,13.32
2023-03-06T10:08:31.183Z,15.70
2023-03-06T10:09:42.803Z,14.70
2023-03-06T10:10:50.265Z,14.52
2023-03-06T10:11:57.887Z,13.30
2023-03-06T10:13:04.803Z,15.68
2023-03-06T10:14:17.727Z,16.50
2023-03-06T10:15:25.024Z,13.50
2023-03-06T10:16:30.554Z,15.52
2023-03-06T10:17:36.057Z,15.75
2023-03-06T10:18:39.293Z,15.55
2023-03-06T10:19:42.080Z,16.10
2023-03-06T10:20:50.387Z,16.48
2023-03-06T10:21:59.532Z,16.90
2023-03-06T10:23:40.436Z,16.80
2023-03-06T10:24:53.297Z,15.30
2023-03-06T10:26:01.895Z,15.68
2023-03-06T10:27:15.939Z,17.05
2023-03-06T10:28:22.170Z,15.30
2023-03-06T10:29:56.313Z,16.13
2023-03-06T10:31:10.619Z,14.40
2023-03-06T10:32:29.036Z,15.00
2023-03-06T10:33:48.640Z,14.05
2023-03-06T10:34:51.476Z,14.90
2023-03-06T10:35:56.478Z,15.65
2023-03-06T10:37:02.283Z,13.05
2023-03-06T10:38:16.583Z,13.07
2023-03-06T10:39:20.980Z,13.60
2023-03-06T10:40:29.428Z,11.25
2023-03-06T10:41:35.706Z,12.60
2023-03-06T10:42:37.523Z,12.32
2023-03-06T10:43:42.378Z,12.63
2023-03-06T10:44:44.900Z,14.73
2023-03-06T10:45:49.754Z,13.73
2023-03-06T10:46:54.598Z,13.75
2023-03-06T10:48:11.792Z,13.30
2023-03-06T10:49:25.286Z,14.38
2023-03-06T10:50:30.593Z,14.25
2023-03-06T10:51:33.920Z,13.73
2023-03-06T10:52:36.998Z,13.80
2023-03-06T10:53:49.877Z,13.48
2023-03-06T10:54:52.549Z,13.60
2023-03-06T10:56:06.097Z,13.88
2023-03-06T10:57:19.790Z,15.68
2023-03-06T10:58:25.258Z,16.80
2023-03-06T10:59:29.331Z,16.52
2023-03-06T11:00:33.187Z,14.70
2023-03-06T11:01:36.671Z,14.60
2023-03-06T11:02:41.034Z,14.88
2023-03-06T11:03:45.210Z,15.95
2023-03-06T11:04:51.628Z,15.02
2023-03-06T11:05:57.614Z,16.90
2023-03-06T11:07:09.917Z,15.95
2023-03-06T11:08:21.857Z,15.77
2023-03-06T11:09:26.374Z,16.38
2023-03-06T11:10:29.426Z,13.65
2023-03-06T11:11:37.797Z,16.30
2023-03-06T11:12:43.591Z,15.70
2023-03-06T11:13:57.440Z,17.02
2023-03-06T11:15:20.922Z,15.15
2023-03-06T11:16:27.420Z,14.60
2023-03-06T11:17:31.902Z,16.92
2023-03-06T11:18:40.216Z,15.18
2023-03-06T11:19:43.309Z,15.23
2023-03-06T11:20:56.821Z,15.98
2023-03-06T11:22:01.759Z,17.30
2023-03-06T11:23:09.036Z,20.40
2023-03-06T11:24:19.485Z,16.10
2023-03-06T11:25:24.732Z,14.52
2023-03-06T11:26:33.430Z,16.30
2023-03-06T11:27:35.601Z,16.92
2023-03-06T11:28:42.660Z,16.33
2023-03-06T11:29:48.059Z,14.35
2023-03-06T11:30:53.247Z,16.48
2023-03-06T11:31:59.310Z,15.60
2023-03-06T11:33:05.912Z,18.25
2023-03-06T11:34:15.600Z,17.77
2023-03-06T11:35:23.637Z,14.85
2023-03-06T11:36:31.350Z,16.02
2023-03-06T11:37:46.653Z,17.05
2023-03-06T11:38:49.919Z,16.60
2023-03-06T11:40:01.620Z,16.73
2023-03-06T11:41:09.107Z,15.32
2023-03-06T11:42:19.367Z,16.48
2023-03-06T11:43:27.464Z,16.10
2023-03-06T11:44:42.953Z,15.95
2023-03-06T11:46:00.192Z,18.27
2023-03-06T11:47:08.606Z,17.75
2023-03-06T11:48:24.555Z,16.13
2023-03-06T11:49:31.962Z,17.63
2023-03-06T11:50:41.413Z,16.67
2023-03-06T11:51:48.234Z,14.90
2023-03-06T11:52:56.015Z,15.18
2023-03-06T11:54:00.780Z,16.27
2023-03-06T11:55:02.647Z,17.88
2023-03-06T11:56:15.608Z,18.38
2023-03-06T11:57:21.729Z,15.93
2023-03-06T11:58:42.733Z,17.48
2023-03-06T12:00:04.156Z,16.38
2023-03-06T12:01:15.777Z,15.93
2023-03-06T12:02:34.277Z,15.90
2023-03-06T12:04:30.923Z,15.57
2023-03-06T12:05:41.156Z,16.63
2023-03-06T12:06:53.609Z,16.38
2023-03-06T12:08:01.980Z,15.40
2023-03-06T12:09:20.570Z,14.55
2023-03-06T12:10:29.777Z,15.02
2023-03-06T12:11:42.673Z,15.80
2023-03-06T12:13:18.623Z,16.35
2023-03-06T12:14:39.072Z,15.32
2023-03-06T12:15:55.090Z,14.65
2023-03-06T12:17:12.377Z,13.95
2023-03-06T12:18:31.338Z,14.98
2023-03-06T12:19:47.096Z,13.38
2023-03-06T12:21:04.027Z,15.48
2023-03-06T12:22:27.500Z,14.68
2023-03-06T12:23:54.874Z,13.48
2023-03-06T12:25:10.557Z,14.50
2023-03-06T12:26:30.587Z,13.30
2023-03-06T12:27:39.986Z,12.63
2023-03-06T12:29:00.151Z,13.15
2023-03-06T12:30:41.523Z,14.02
2023-03-06T12:31:55.845Z,13.68
2023-03-06T12:33:06.626Z,13.73
2023-03-06T12:34:21.306Z,14.77
2023-03-06T12:35:37.008Z,14.35
2023-03-06T12:36:55.925Z,14.52
2023-03-06T12:38:11.047Z,15.25
2023-03-06T12:39:25.690Z,14.52
2023-03-06T12:40:49.616Z,13.00
2023-03-06T12:42:23.540Z,13.77
2023-03-06T12:44:11.160Z,13.63
2023-03-06T12:45:30.770Z,14.82
2023-03-06T12:46:39.329Z,14.68
2023-03-06T12:47:44.143Z,15.18
2023-03-06T12:48:49.535Z,15.48
2023-03-06T12:49:56.689Z,13.20
2023-03-06T12:51:00.093Z,15.20
2023-03-06T12:52:05.944Z,15.68
2023-03-06T12:53:14.985Z,14.32
2023-03-06T12:54:22.065Z,13.75
2023-03-06T12:55:26.021Z,15.00
2023-03-06T12:56:29.699Z,15.70
2023-03-06T12:57:32.325Z,14.65
2023-03-06T12:58:47.513Z,16.08
2023-03-06T12:59:50.737Z,15.73
2023-03-06T13:01:04.792Z,13.98
2023-03-06T13:02:32.736Z,14.73
2023-03-06T13:04:00.480Z,16.00
2023-03-06T13:05:31.317Z,13.45
2023-03-06T13:06:51.671Z,15.48
2023-03-06T13:08:08.996Z,14.35
2023-03-06T13:09:20.876Z,13.55
2023-03-06T13:10:27.481Z,14.40
2023-03-06T13:12:04.955Z,14.77
2023-03-06T13:13:32.474Z,13.85
2023-03-06T13:14:55.871Z,12.55
2023-03-06T13:16:14.024Z,14.23
2023-03-06T13:17:36.558Z,14.15
2023-03-06T13:19:02.023Z,14.77
2023-03-06T13:20:29.302Z,14.30
2023-03-06T13:22:03.010Z,15.98
2023-03-06T13:23:50.399Z,13.95
2023-03-06T13:25:26.299Z,11.88
2023-03-06T13:26:55.198Z,12.88
2023-03-06T13:28:03.102Z,13.70
2023-03-06T13:29:44.366Z,14.23
2023-03-06T13:30:56.916Z,12.65
2023-03-06T13:32:17.680Z,13.90
2023-03-06T13:33:54.700Z,13.52
2023-03-06T13:34:56.440Z,12.90
2023-03-06T13:35:59.758Z,13.75
2023-03-06T13:37:35.918Z,12.65
2023-03-06T13:38:58.349Z,13.95
2023-03-06T13:40:30.112Z,13.23
2023-03-06T13:41:44.937Z,13.38
2023-03-06T13:43:22.888Z,12.20
2023-03-06T13:44:50.872Z,13.30
2023-03-06T13:45:53.564Z,12.38
2023-03-06T13:46:58.540Z,11.85
2023-03-06T13:48:25.062Z,13.57
2023-03-06T13:49:25.657Z,12.43
2023-03-06T13:50:39.777Z,11.18
2023-03-06T13:52:04.936Z,12.27
2023-03-06T13:53:53.591Z,11.02
2023-03-06T13:55:09.512Z,12.85
2023-03-06T13:56:32.269Z,11.57
2023-03-06T13:57:58.343Z,11.35
2023-03-06T13:59:21.999Z,12.05
2023-03-06T14:00:49.296Z,11.88
2023-03-06T14:02:02.778Z,12.05
2023-03-06T14:03:37.017Z,12.30
2023-03-06T14:04:54.254Z,13.52
2023-03-06T14:05:55.894Z,13.20
2023-03-06T14:07:26.655Z,12.40
2023-03-06T14:08:32.218Z,13.77
2023-03-06T14:09:38.799Z,15.52
2023-03-06T14:10:44.408Z,15.82
2023-03-06T14:11:50.474Z,14.38
2023-03-06T14:13:02.979Z,13.00
2023-03-06T14:14:05.388Z,12.65
2023-03-06T14:15:18.966Z,11.93
2023-03-06T14:16:24.429Z,11.43
2023-03-06T14:17:29.598Z,12.40
2023-03-06T14:18:38.731Z,11.45